Gardner, Kansas
Current Conditions -  °F | °C
As of 11:00 AM on Saturday 22 Nov 2014 (Local Time) from KIXD Reporting Station
Haze Haze  
Wind Chill: 55°   Ceiling: 500
Heat Index: 55°   Visibility: 3mi
Dew Point: 54°   Wind: 16mph
Humidity: 96%   Direction: 180°S
Pressure: 29.94"   Gusts: 24mph
Location:  38.81°N, 94.93°W
Report Text: KIXD 221700Z 18014G21KT 3SM BR OVC005 13/12 A2994 RMK AO2 T01280122
Loading
Personal Weather Stations






























Interactive Weather Map New forecast layout! Learn more

10-Day Weather Forecast

Advertisements
Track Severe Weather on mobile